Time;durP1;ratioP1;P1;durP2;ratioP2;P2;SDS_P1;SDS_P2;PMS_P1;PMS_P2;Temp;Humidity;BMP_temperature;BMP_pressure;BME280_temperature;BME280_humidity;BME280_pressure;Samples;Min_cycle;Max_cycle;Signal;HPM_P1;HPM_P2
2024/02/16 00:00:37;;;;;;;3.50;1.97;;;9.20;99.90;;;9.91;100.00;97763.00;4982869;28;21024;-75
2024/02/16 00:03:06;;;;;;;7.10;1.90;;;9.20;99.90;;;9.95;100.00;97772.06;4981517;28;20460;-76
2024/02/16 00:05:35;;;;;;;7.50;2.70;;;9.20;99.90;;;9.96;100.00;97766.66;4982577;28;20975;-74
2024/02/16 00:08:04;;;;;;;5.40;2.80;;;9.20;99.90;;;9.95;100.00;97765.06;4981712;28;20476;-75
2024/02/16 00:10:33;;;;;;;6.30;2.10;;;9.20;99.90;;;9.95;100.00;97769.47;4981911;28;20463;-76
2024/02/16 00:13:00;;;;;;;8.77;2.20;;;9.20;99.90;;;9.97;100.00;97773.50;4981682;28;20958;-75
2024/02/16 00:15:30;;;;;;;5.33;2.40;;;9.20;99.90;;;9.95;100.00;97764.25;4980745;28;20471;-75
2024/02/16 00:17:59;;;;;;;6.10;2.90;;;9.20;99.90;;;9.88;100.00;97760.78;4980212;28;20555;-75
2024/02/16 00:20:27;;;;;;;4.40;1.90;;;9.10;99.90;;;9.89;100.00;97765.78;4982565;28;20866;-75
2024/02/16 00:22:56;;;;;;;18.33;2.50;;;9.10;99.90;;;9.86;100.00;97760.13;4981557;28;20471;-75
2024/02/16 00:25:25;;;;;;;2.47;1.70;;;9.10;99.90;;;9.86;100.00;97750.50;4981237;28;21074;-75
2024/02/16 00:27:53;;;;;;;10.70;2.00;;;9.10;99.90;;;9.90;100.00;97761.38;4981160;28;20464;-75
2024/02/16 00:30:23;;;;;;;7.33;2.00;;;9.20;99.90;;;9.88;100.00;97766.00;4982647;28;20768;-75
2024/02/16 00:32:53;;;;;;;4.00;1.67;;;9.20;99.90;;;9.93;100.00;97771.44;4982091;28;20566;-75
2024/02/16 00:35:21;;;;;;;3.50;2.47;;;9.20;99.90;;;9.94;100.00;97773.06;4981491;28;20460;-75
2024/02/16 00:37:50;;;;;;;4.80;1.73;;;9.20;99.90;;;9.99;100.00;97770.69;4980567;28;20538;-75
2024/02/16 00:40:19;;;;;;;4.77;2.40;;;9.20;99.90;;;10.01;100.00;97774.72;4981339;28;20574;-75
2024/02/16 00:42:47;;;;;;;3.83;1.97;;;9.30;99.90;;;9.91;100.00;97769.03;4982109;28;20471;-75
2024/02/16 00:45:15;;;;;;;3.40;1.73;;;9.20;99.90;;;9.93;100.00;97771.44;4981107;28;20499;-75
2024/02/16 00:47:45;;;;;;;2.23;1.73;;;9.20;99.90;;;9.90;100.00;97769.22;4983175;28;20847;-75
2024/02/16 00:50:15;;;;;;;3.10;1.80;;;9.10;99.90;;;9.90;100.00;97762.19;4980936;28;20471;-75
2024/02/16 00:52:45;;;;;;;2.20;1.40;;;9.10;99.90;;;9.87;100.00;97756.53;4981264;28;21036;-76
2024/02/16 00:55:15;;;;;;;2.90;1.70;;;9.10;99.90;;;9.91;100.00;97747.31;4980586;28;20467;-75
2024/02/16 00:57:43;;;;;;;2.83;1.53;;;9.20;99.90;;;9.90;100.00;97756.16;4982364;28;20519;-75
2024/02/16 01:00:16;;;;;;;3.23;1.57;;;9.10;99.90;;;9.88;100.00;97760.78;4981712;28;20475;-75
2024/02/16 01:02:45;;;;;;;4.00;2.00;;;9.10;99.90;;;9.83;100.00;97750.88;4980712;28;20885;-76
2024/02/16 01:05:17;;;;;;;3.23;1.63;;;9.00;99.90;;;9.79;100.00;97752.25;4981477;28;20499;-75
2024/02/16 01:07:46;;;;;;;2.90;1.67;;;9.00;99.90;;;9.77;100.00;97750.84;4981023;28;20484;-75
2024/02/16 01:10:15;;;;;;;4.03;1.97;;;9.00;99.90;;;9.75;100.00;97750.22;4982807;28;20504;-75
2024/02/16 01:12:43;;;;;;;2.53;1.60;;;9.00;99.90;;;9.72;100.00;97753.22;4980375;28;20464;-76
2024/02/16 01:15:12;;;;;;;2.40;1.70;;;8.90;99.90;;;9.71;100.00;97746.38;4980112;28;20511;-75
2024/02/16 01:17:40;;;;;;;4.30;1.83;;;8.90;99.90;;;9.69;100.00;97738.72;4980330;28;20970;-75
2024/02/16 01:20:12;;;;;;;3.57;1.60;;;8.90;99.90;;;9.71;100.00;97746.38;4981417;28;20680;-75
2024/02/16 01:22:42;;;;;;;4.87;1.87;;;9.00;99.90;;;9.76;100.00;97739.56;4980180;28;20464;-74
2024/02/16 01:25:11;;;;;;;9.77;1.87;;;9.00;99.90;;;9.76;100.00;97744.00;4980158;28;20492;-75
2024/02/16 01:27:40;;;;;;;3.63;2.10;;;9.00;99.90;;;9.72;100.00;97746.16;4980066;28;20468;-75
2024/02/16 01:30:10;;;;;;;6.47;1.77;;;8.90;99.90;;;9.77;100.00;97743.00;4980104;28;20475;-75
2024/02/16 01:32:39;;;;;;;3.20;1.57;;;9.10;99.90;;;9.79;100.00;97739.19;4979774;28;20470;-75
2024/02/16 01:35:09;;;;;;;3.37;1.83;;;9.10;99.90;;;9.75;100.00;97745.00;4980045;28;20464;-75
2024/02/16 01:37:37;;;;;;;2.27;2.07;;;9.00;99.90;;;9.74;100.00;97741.59;4979866;28;20566;-75
2024/02/16 01:40:13;;;;;;;8.10;2.27;;;9.00;99.90;;;9.76;100.00;97744.00;4980599;28;20501;-75
2024/02/16 01:42:42;;;;;;;5.80;1.90;;;9.00;99.90;;;9.72;100.00;97740.94;4980424;28;20542;-75
2024/02/16 01:45:12;;;;;;;3.60;1.93;;;9.00;99.90;;;9.74;100.00;97748.59;4979463;28;20529;-75
2024/02/16 01:47:44;;;;;;;5.00;1.73;;;9.00;99.90;;;9.73;100.00;97744.38;4980034;28;20963;-75
2024/02/16 01:50:13;;;;;;;4.97;2.10;;;9.00;99.90;;;9.74;100.00;97746.00;4979998;28;20526;-75
2024/02/16 01:52:43;;;;;;;7.60;1.70;;;9.00;99.90;;;9.75;100.00;97747.63;4979853;28;20468;-76
2024/02/16 01:55:13;;;;;;;3.83;2.13;;;9.00;99.90;;;9.75;100.00;97739.78;4980547;28;20483;-75
2024/02/16 01:57:44;;;;;;;3.03;2.03;;;9.00;99.90;;;9.73;100.00;97744.38;4980471;28;20472;-75
2024/02/16 02:00:17;;;;;;;3.77;2.00;;;9.00;99.90;;;9.72;100.00;97748.00;4980487;28;20464;-76
2024/02/16 02:02:47;;;;;;;1.80;1.70;;;8.90;99.90;;;9.69;100.00;97748.34;4980642;28;20499;-76
2024/02/16 02:05:15;;;;;;;4.07;1.90;;;8.90;99.90;;;9.66;100.00;97744.31;4980508;28;20553;-76
2024/02/16 02:07:44;;;;;;;5.83;2.03;;;8.90;99.90;;;9.69;100.00;97748.34;4980023;28;20882;-75
2024/02/16 02:10:14;;;;;;;6.17;3.10;;;8.90;99.90;;;9.69;100.00;97748.34;4981262;28;20645;-75
2024/02/16 02:12:44;;;;;;;7.70;1.77;;;8.90;99.90;;;9.71;100.00;97741.16;4979680;28;20550;-75
2024/02/16 02:15:13;;;;;;;3.70;1.97;;;8.90;99.90;;;9.72;100.00;97742.78;4981067;28;20550;-75
2024/02/16 02:17:41;;;;;;;1.80;1.50;;;8.90;99.90;;;9.75;100.00;97739.78;4980081;28;20471;-76
2024/02/16 02:20:10;;;;;;;9.23;2.27;;;9.00;99.90;;;9.76;100.00;97733.53;4980073;28;21015;-75
2024/02/16 02:22:41;;;;;;;3.17;2.10;;;9.00;99.90;;;9.80;100.00;97725.16;4979322;28;20841;-76
2024/02/16 02:25:11;;;;;;;4.90;2.17;;;9.10;99.90;;;9.78;100.00;97740.22;4977487;28;20832;-75
2024/02/16 02:27:39;;;;;;;2.87;1.80;;;9.00;99.90;;;9.78;100.00;97737.59;4979101;28;20495;-75
2024/02/16 02:30:09;;;;;;;5.90;2.27;;;9.00;99.90;;;9.73;100.00;97734.75;4980397;28;21069;-75
2024/02/16 02:32:37;;;;;;;7.30;2.00;;;9.00;99.90;;;9.78;100.00;97742.00;4979584;28;20947;-75
2024/02/16 02:35:09;;;;;;;9.67;3.20;;;9.10;99.90;;;9.80;100.00;97740.81;4979713;28;20497;-75
2024/02/16 02:37:38;;;;;;;4.50;2.53;;;9.10;99.90;;;9.83;100.00;97750.06;4979679;28;20479;-75
2024/02/16 02:40:10;;;;;;;2.00;1.77;;;9.10;99.90;;;9.86;100.00;97754.91;4980458;28;20467;-76
2024/02/16 02:42:38;;;;;;;9.43;2.20;;;9.10;99.90;;;9.89;100.00;97760.56;4978979;28;20471;-75
2024/02/16 02:45:09;;;;;;;8.40;2.00;;;9.20;99.90;;;9.93;100.00;97750.53;4979385;28;20467;-76
2024/02/16 02:47:37;;;;;;;4.40;2.13;;;9.20;99.90;;;10.00;100.00;97746.19;4978994;28;20492;-76
2024/02/16 02:50:07;;;;;;;1.73;1.60;;;9.30;99.90;;;10.02;100.00;97746.81;4979699;28;20483;-75
2024/02/16 02:52:36;;;;;;;3.43;2.10;;;9.30;99.90;;;10.00;100.00;97740.94;4978829;28;20471;-75
2024/02/16 02:55:06;;;;;;;6.20;2.40;;;9.30;99.90;;;9.99;100.00;97744.59;4979196;28;20478;-75
2024/02/16 02:57:36;;;;;;;9.77;1.70;;;9.30;99.90;;;10.00;100.00;97733.94;4980352;28;20467;-75
2024/02/16 03:00:10;;;;;;;4.93;1.90;;;9.30;99.90;;;9.99;100.00;97732.34;4979495;28;20993;-76
2024/02/16 03:02:41;;;;;;;6.50;2.30;;;9.20;99.90;;;9.97;100.00;97733.50;4980668;28;20546;-74
2024/02/16 03:05:09;;;;;;;3.10;1.93;;;9.30;99.90;;;10.01;100.00;97726.91;4979473;28;20467;-76
2024/02/16 03:07:38;;;;;;;2.07;1.80;;;9.30;99.90;;;9.99;100.00;97724.50;4979406;28;20526;-75
2024/02/16 03:10:10;;;;;;;2.23;1.73;;;9.30;99.90;;;10.03;100.00;97722.31;4979719;28;20456;-75
2024/02/16 03:12:40;;;;;;;8.07;2.43;;;9.30;99.90;;;10.05;100.00;97728.94;4979276;28;20558;-75
2024/02/16 03:15:09;;;;;;;4.37;1.70;;;9.30;99.90;;;10.07;100.00;97729.56;4982427;28;20962;-75
2024/02/16 03:17:38;;;;;;;2.60;1.80;;;9.40;99.90;;;10.10;100.00;97730.97;4984198;28;20514;-75
2024/02/16 03:20:09;;;;;;;4.43;1.60;;;9.50;99.90;;;10.13;100.00;97741.06;4982606;28;20471;-75
2024/02/16 03:22:37;;;;;;;5.43;2.00;;;9.40;99.90;;;10.10;100.00;97738.81;4983718;28;20467;-75
2024/02/16 03:25:06;;;;;;;3.87;2.00;;;9.40;99.90;;;10.08;100.00;97738.19;4983328;28;20463;-76
2024/02/16 03:27:35;;;;;;;4.53;2.10;;;9.40;99.90;;;10.11;100.00;97741.25;4982354;28;20503;-76
2024/02/16 03:30:06;;;;;;;10.60;2.37;;;9.40;99.90;;;10.09;100.00;97740.63;4982116;28;20477;-76
2024/02/16 03:32:35;;;;;;;5.37;2.00;;;9.40;99.90;;;10.07;100.00;97753.06;4982161;28;21753;-75
2024/02/16 03:35:05;;;;;;;3.97;1.93;;;9.40;99.90;;;10.03;100.00;97756.28;4982838;28;20823;-75
2024/02/16 03:37:34;;;;;;;8.10;1.90;;;9.30;99.90;;;10.05;100.00;97746.44;4982306;28;20480;-75
2024/02/16 03:40:04;;;;;;;2.93;2.00;;;9.30;99.90;;;10.06;100.00;97734.97;4982272;28;20526;-75
2024/02/16 03:42:33;;;;;;;4.60;1.87;;;9.30;99.90;;;10.05;100.00;97743.81;4982109;28;20476;-76
2024/02/16 03:45:01;;;;;;;3.10;2.00;;;9.30;99.90;;;10.02;100.00;97734.56;4982448;28;20962;-76
2024/02/16 03:47:31;;;;;;;5.60;2.63;;;9.30;99.90;;;10.02;100.00;97737.16;4982381;28;20507;-75
2024/02/16 03:49:59;;;;;;;2.40;1.90;;;9.30;99.90;;;10.07;100.00;97741.81;4981748;28;20463;-75
2024/02/16 03:52:28;;;;;;;5.97;2.63;;;9.30;99.90;;;10.06;100.00;97734.97;4982607;28;20510;-76
2024/02/16 03:54:57;;;;;;;2.27;1.70;;;9.30;99.90;;;10.06;100.00;97741.03;4981848;28;20958;-76
2024/02/16 03:57:26;;;;;;;2.80;1.63;;;9.40;99.90;;;10.08;100.00;97735.59;4983091;28;20456;-75
2024/02/16 03:59:54;;;;;;;2.70;1.80;;;9.40;99.90;;;10.07;100.00;97736.56;4983058;28;20456;-76
2024/02/16 04:02:23;;;;;;;4.50;2.10;;;9.40;99.90;;;10.05;100.00;97741.19;4982075;28;20459;-76
2024/02/16 04:04:52;;;;;;;3.70;2.17;;;9.40;99.90;;;10.04;100.00;97739.56;4982426;28;20472;-76
2024/02/16 04:07:21;;;;;;;11.13;2.10;;;9.30;99.90;;;10.03;100.00;97736.16;4982883;28;20492;-76
2024/02/16 04:09:49;;;;;;;9.33;2.30;;;9.30;99.90;;;10.03;100.00;97744.00;4982010;28;21016;-76
2024/02/16 04:12:18;;;;;;;3.87;2.10;;;9.30;99.90;;;10.02;100.00;97745.00;4977796;28;20523;-75
2024/02/16 04:14:46;;;;;;;6.70;2.07;;;9.30;99.90;;;10.04;100.00;97750.03;4972325;28;20546;-75
2024/02/16 04:17:14;;;;;;;5.60;2.10;;;9.30;99.90;;;10.05;100.00;97749.03;4976710;28;20472;-75
2024/02/16 04:19:43;;;;;;;2.80;1.77;;;9.30;99.90;;;10.09;100.00;97753.69;4972677;28;20523;-79
2024/02/16 04:22:13;;;;;;;15.43;6.80;;;9.40;99.90;;;10.07;100.00;97755.69;4980468;28;20534;-75
2024/02/16 04:24:42;;;;;;;9.37;3.17;;;9.40;99.90;;;10.10;100.00;97757.91;4975360;28;20526;-75
2024/02/16 04:27:10;;;;;;;4.43;1.90;;;9.40;99.90;;;10.16;100.00;97753.78;4973500;28;21053;-75
2024/02/16 04:29:39;;;;;;;3.07;2.17;;;9.40;99.90;;;10.18;100.00;97764.81;4981428;28;20494;-74
2024/02/16 04:32:07;;;;;;;3.53;2.13;;;9.40;99.90;;;10.18;100.00;97759.59;4979984;28;20476;-75
2024/02/16 04:34:36;;;;;;;1.90;1.60;;;9.40;99.90;;;10.16;100.00;97756.38;4976772;28;20482;-75
2024/02/16 04:37:05;;;;;;;4.40;2.03;;;9.40;99.90;;;10.16;100.00;97766.03;4981397;28;20491;-75
2024/02/16 04:39:35;;;;;;;4.03;2.00;;;9.40;99.90;;;10.11;100.00;97769.16;4981149;28;20463;-75
2024/02/16 04:42:04;;;;;;;8.20;2.70;;;9.40;99.90;;;10.15;100.00;97767.81;4981624;28;20978;-75
2024/02/16 04:44:32;;;;;;;3.03;1.83;;;9.40;99.90;;;10.14;100.00;97768.81;4981785;28;20567;-75
2024/02/16 04:47:01;;;;;;;5.93;2.60;;;9.40;99.90;;;10.15;100.00;97769.63;4980269;28;21132;-75
2024/02/16 04:49:29;;;;;;;2.13;1.93;;;9.40;99.90;;;10.13;100.00;97767.97;4981661;28;20475;-75
2024/02/16 04:51:58;;;;;;;3.27;2.10;;;9.40;99.90;;;10.13;100.00;97772.41;4980106;28;20504;-75
2024/02/16 04:54:26;;;;;;;6.20;2.40;;;9.40;99.90;;;10.09;100.00;97787.66;4980994;28;20484;-75
2024/02/16 04:56:56;;;;;;;5.70;3.23;;;9.40;99.90;;;10.08;100.00;97783.44;4975119;28;20586;-76
2024/02/16 04:59:24;;;;;;;4.50;2.07;;;9.40;99.90;;;10.09;100.00;97789.47;4974659;28;21056;-75
2024/02/16 05:01:53;;;;;;;5.17;2.30;;;9.30;99.90;;;10.07;100.00;97794.06;4980463;28;20467;-75
2024/02/16 05:04:21;;;;;;;2.50;1.80;;;9.30;99.90;;;10.03;100.00;97790.22;4981226;28;20474;-75
2024/02/16 05:06:52;;;;;;;5.07;2.07;;;9.40;99.90;;;10.04;100.00;97779.56;4982065;28;20887;-75
2024/02/16 05:09:21;;;;;;;5.40;2.20;;;9.30;99.90;;;10.02;100.00;97778.16;4980962;28;20488;-75
2024/02/16 05:11:51;;;;;;;3.73;1.80;;;9.30;99.90;;;10.03;100.00;97785.00;4978969;28;21023;-74
2024/02/16 05:14:20;;;;;;;3.83;2.10;;;9.30;99.90;;;9.98;100.00;97779.53;4980370;28;20940;-75
2024/02/16 05:16:50;;;;;;;2.30;1.70;;;9.20;99.90;;;10.03;100.00;97782.38;4980482;28;20533;-75
2024/02/16 05:19:20;;;;;;;2.10;1.90;;;9.20;99.90;;;10.02;100.00;97775.53;4980580;28;20526;-75
2024/02/16 05:21:49;;;;;;;2.13;1.70;;;9.20;99.90;;;9.98;100.00;97776.91;4977457;28;20632;-77
2024/02/16 05:24:17;;;;;;;5.40;2.07;;;9.30;99.90;;;9.96;100.00;97774.47;4976634;28;20578;-75
2024/02/16 05:26:46;;;;;;;3.80;1.90;;;9.30;99.90;;;9.96;100.00;97777.09;4980511;28;20483;-76
2024/02/16 05:29:14;;;;;;;4.17;2.10;;;9.30;99.90;;;9.95;100.00;97779.91;4980431;28;21147;-76
2024/02/16 05:31:44;;;;;;;4.57;2.00;;;9.30;99.90;;;9.96;100.00;97776.31;4980666;28;20468;-76
2024/02/16 05:34:13;;;;;;;3.63;2.10;;;9.30;99.90;;;9.97;100.00;97773.50;4980389;28;20471;-76
2024/02/16 05:36:42;;;;;;;2.77;2.00;;;9.30;99.90;;;9.95;100.00;97769.47;4978307;28;21060;-75
2024/02/16 05:39:20;;;;;;;3.10;2.17;;;9.30;99.90;;;9.94;100.00;97781.72;4979401;28;20476;-75
2024/02/16 05:41:49;;;;;;;3.63;1.93;;;9.30;99.90;;;10.01;100.00;97779.97;4979358;28;20469;-73
2024/02/16 05:44:18;;;;;;;3.90;1.73;;;9.30;99.90;;;10.00;100.00;97777.53;4978974;28;20461;-75
2024/02/16 05:46:48;;;;;;;4.20;2.13;;;9.30;99.90;;;10.01;100.00;97777.34;4980643;28;20696;-75
2024/02/16 05:49:17;;;;;;;2.23;1.80;;;9.40;99.90;;;9.99;100.00;97783.75;4979576;28;20499;-76
2024/02/16 05:52:17;;;;;;;7.97;2.87;;;9.30;99.90;;;10.02;100.00;97780.75;4979986;28;20463;-76
2024/02/16 05:54:34;;;;;;;5.73;2.03;;;9.30;99.90;;;10.05;100.00;97786.41;4979762;28;20547;-76
2024/02/16 05:57:08;;;;;;;5.30;2.10;;;9.30;99.90;;;10.06;100.00;97787.22;4979023;28;20468;-76
2024/02/16 05:59:38;;;;;;;2.90;2.27;;;9.30;99.90;;;10.10;100.00;97793.66;4979465;28;20537;-76
2024/02/16 06:02:08;;;;;;;2.70;1.90;;;9.40;99.90;;;10.10;100.00;97778.81;4980319;28;20521;-75
2024/02/16 06:04:37;;;;;;;7.73;4.30;;;9.40;99.90;;;10.10;100.00;97785.81;4974340;28;20969;-80
2024/02/16 06:07:05;;;;;;;4.37;2.03;;;9.40;99.90;;;10.09;100.00;97786.84;4977707;28;20465;-76
2024/02/16 06:09:34;;;;;;;7.07;2.37;;;9.40;99.90;;;10.07;100.00;97791.44;4980072;28;20491;-76
2024/02/16 06:12:06;;;;;;;4.77;2.20;;;9.30;99.90;;;10.06;100.00;97793.28;4978463;28;20464;-76
2024/02/16 06:14:36;;;;;;;3.50;2.10;;;9.30;99.90;;;10.05;100.00;97802.09;4979433;28;20567;-76
2024/02/16 06:17:08;;;;;;;4.83;1.83;;;9.30;99.90;;;10.09;100.00;97797.28;4980615;28;20468;-76
2024/02/16 06:19:37;;;;;;;2.77;2.30;;;9.30;99.90;;;10.04;100.00;97800.47;4980960;28;20550;-75
2024/02/16 06:22:05;;;;;;;2.27;1.90;;;9.30;99.90;;;10.08;100.00;97806.94;4977892;28;20483;-76
2024/02/16 06:24:34;;;;;;;5.60;2.07;;;9.40;99.90;;;10.05;100.00;97802.09;4980410;28;20989;-75
2024/02/16 06:27:03;;;;;;;2.67;2.10;;;9.40;99.90;;;10.09;100.00;97802.53;4979750;28;20476;-76
2024/02/16 06:29:31;;;;;;;5.03;2.20;;;9.40;99.90;;;10.09;100.00;97808.56;4980391;28;20502;-75
2024/02/16 06:32:01;;;;;;;2.50;2.10;;;9.40;99.90;;;10.08;100.00;97816.56;4980563;28;20460;-76
2024/02/16 06:34:32;;;;;;;4.83;2.30;;;9.40;99.90;;;10.06;100.00;97808.94;4979517;28;20464;-75
2024/02/16 06:37:00;;;;;;;3.00;1.93;;;9.30;99.90;;;10.04;100.00;97818.75;4979436;28;20484;-76
2024/02/16 06:39:30;;;;;;;4.90;2.23;;;9.30;99.90;;;10.04;100.00;97820.56;4980216;28;20854;-76
2024/02/16 06:42:00;;;;;;;2.43;1.80;;;9.30;99.90;;;10.00;100.00;97830.56;4979667;28;20498;-75
2024/02/16 06:44:28;;;;;;;4.50;1.90;;;9.30;99.90;;;10.01;100.00;97828.78;4978705;28;20494;-76
2024/02/16 06:46:57;;;;;;;7.70;3.90;;;9.30;99.90;;;9.93;100.00;97828.91;4976022;28;20471;-75
2024/02/16 06:49:25;;;;;;;6.87;2.30;;;9.20;99.90;;;9.92;100.00;97835.13;4976017;28;20503;-75
2024/02/16 06:51:55;;;;;;;2.67;1.63;;;9.20;99.90;;;9.90;100.00;97835.31;4974811;28;20467;-76
2024/02/16 06:54:25;;;;;;;2.50;1.73;;;9.20;99.90;;;9.84;100.00;97835.25;4976322;28;20468;-75
2024/02/16 06:56:54;;;;;;;3.23;2.30;;;9.20;99.90;;;9.84;100.00;97835.25;4986905;28;20490;-76
2024/02/16 06:59:22;;;;;;;6.80;2.00;;;9.10;99.90;;;9.81;100.00;97851.31;4986108;28;20583;-75
2024/02/16 07:01:51;;;;;;;4.27;2.00;;;9.10;99.90;;;9.79;100.00;97848.88;4984340;28;20975;-75
2024/02/16 07:04:20;;;;;;;6.03;2.20;;;9.10;99.90;;;9.76;100.00;97848.44;4984977;28;20768;-76
2024/02/16 07:06:48;;;;;;;5.17;2.40;;;9.00;99.90;;;9.73;100.00;97860.06;4985376;28;20830;-76
2024/02/16 07:09:18;;;;;;;5.17;2.30;;;9.00;99.90;;;9.77;100.00;97870.94;4986649;28;20505;-76
2024/02/16 07:11:48;;;;;;;6.87;2.23;;;9.00;99.90;;;9.79;100.00;97866.38;4984612;28;20468;-76
2024/02/16 07:14:21;;;;;;;2.95;1.92;;;9.00;99.90;;;9.79;100.00;97871.59;4985404;28;20452;-75
2024/02/16 07:16:49;;;;;;;3.00;2.10;;;9.00;99.90;;;9.81;100.00;97866.97;4979212;28;20708;-76
2024/02/16 07:19:18;;;;;;;3.40;1.80;;;9.10;99.90;;;9.84;100.00;97863.97;4976403;28;20471;-81
2024/02/16 07:21:47;;;;;;;62.03;26.00;;;9.10;99.90;;;9.90;100.00;97868.44;4977361;28;20537;-75
2024/02/16 07:24:15;;;;;;;10.20;3.07;;;9.20;99.90;;;9.90;100.00;97871.88;4982240;28;20459;-75
2024/02/16 07:26:45;;;;;;;1.87;1.70;;;9.20;99.90;;;9.93;100.00;97874.13;4981825;28;20467;-75
2024/02/16 07:29:16;;;;;;;2.70;2.10;;;9.20;99.90;;;9.98;100.00;97868.34;4982380;28;20495;-75
2024/02/16 07:31:45;;;;;;;3.90;2.13;;;9.20;99.90;;;10.01;100.00;97868.78;4982935;28;20467;-75
2024/02/16 07:34:13;;;;;;;2.87;2.33;;;9.30;99.90;;;10.01;100.00;97879.22;4980981;28;20468;-75
2024/02/16 07:36:42;;;;;;;3.23;1.50;;;9.30;99.90;;;10.05;100.00;97880.47;4981723;28;20487;-75
2024/02/16 07:39:11;;;;;;;7.53;2.03;;;9.30;99.90;;;10.07;100.00;97880.25;4982360;28;21022;-75
2024/02/16 07:41:40;;;;;;;3.73;2.20;;;9.30;99.90;;;10.06;100.00;97881.28;4981556;28;20472;-75
2024/02/16 07:44:10;;;;;;;2.67;2.00;;;9.40;99.90;;;10.12;100.00;97888.34;4982905;28;20519;-75
2024/02/16 07:46:41;;;;;;;4.27;2.27;;;9.40;99.90;;;10.14;100.00;97886.38;4983686;28;20947;-75
2024/02/16 07:49:11;;;;;;;8.93;2.47;;;9.40;99.90;;;10.18;100.00;97882.41;4981429;28;21154;-75
2024/02/16 07:51:41;;;;;;;3.53;2.53;;;9.40;99.90;;;10.25;100.00;97885.88;4982388;28;20538;-75
2024/02/16 07:54:09;;;;;;;2.47;2.00;;;9.50;99.90;;;10.24;100.00;97880.84;4981484;28;20830;-75
2024/02/16 07:56:38;;;;;;;8.23;2.13;;;9.50;99.90;;;10.29;100.00;97875.84;4982766;28;20555;-75
2024/02/16 07:59:06;;;;;;;12.53;2.20;;;9.50;99.90;;;10.33;100.00;97885.75;4981651;28;21054;-75
2024/02/16 08:01:36;;;;;;;8.90;2.23;;;9.60;99.90;;;10.34;100.00;97874.31;4981698;28;20464;-75
2024/02/16 08:04:05;;;;;;;4.20;2.30;;;9.60;99.90;;;10.37;100.00;97894.84;4980944;28;20542;-75
2024/02/16 08:06:34;;;;;;;4.80;2.10;;;9.60;99.90;;;10.40;100.00;97888.41;4982375;28;20504;-75
2024/02/16 08:09:06;;;;;;;7.30;2.20;;;9.60;99.90;;;10.43;100.00;97888.84;4978617;28;20502;-75
2024/02/16 08:11:34;;;;;;;4.37;2.27;;;9.70;99.90;;;10.48;100.00;97886.44;4974466;28;20472;-75
2024/02/16 08:14:03;;;;;;;4.73;2.13;;;9.70;99.90;;;10.48;100.00;97889.06;4975381;28;20467;-75
2024/02/16 08:16:32;;;;;;;4.77;2.80;;;9.80;99.90;;;10.53;100.00;97889.31;4975507;28;20894;-75
2024/02/16 08:19:02;;;;;;;4.20;2.43;;;9.80;99.90;;;10.59;100.00;97893.78;4975514;28;20472;-75
2024/02/16 08:21:30;;;;;;;4.33;2.30;;;9.80;99.90;;;10.62;100.00;97892.59;4974828;28;20546;-75
2024/02/16 08:23:59;;;;;;;3.13;1.70;;;9.90;99.90;;;10.67;100.00;97899.88;4975803;28;20547;-81
2024/02/16 08:26:28;;;;;;;67.23;30.77;;;9.90;99.90;;;10.69;100.00;97892.66;4976211;28;21026;-75
2024/02/16 08:28:57;;;;;;;13.23;6.27;;;10.00;99.90;;;10.74;100.00;97891.06;4975112;28;20700;-75
2024/02/16 08:31:25;;;;;;;3.57;2.33;;;10.00;99.90;;;10.79;100.00;97895.72;4976389;28;20472;-75
2024/02/16 08:33:56;;;;;;;3.50;2.13;;;10.10;99.90;;;10.84;100.00;97895.94;4981254;28;20468;-75
2024/02/16 08:36:29;;;;;;;4.93;2.30;;;10.20;99.90;;;10.88;100.00;97902.41;4980820;28;20851;-74
2024/02/16 08:38:57;;;;;;;3.90;2.77;;;10.20;99.90;;;10.92;100.00;97906.28;4981453;28;20590;-75
2024/02/16 08:41:26;;;;;;;3.23;2.10;;;10.30;99.90;;;10.96;100.00;97910.13;4980875;28;20558;-75
2024/02/16 08:43:54;;;;;;;5.30;2.10;;;10.30;99.90;;;10.96;100.00;97916.16;4982527;28;21090;-75
2024/02/16 08:46:23;;;;;;;4.17;2.10;;;10.20;99.90;;;11.06;100.00;97913.19;4980144;28;21029;-75
2024/02/16 08:48:52;;;;;;;2.50;2.00;;;10.50;99.90;;;11.12;100.00;97915.03;4980687;28;20463;-76
2024/02/16 08:51:20;;;;;;;5.43;2.20;;;10.50;99.90;;;11.18;100.00;97919.47;4979970;28;20456;-75
2024/02/16 08:53:50;;;;;;;5.80;2.13;;;10.50;99.90;;;11.22;100.00;97920.72;4981217;28;20460;-76
2024/02/16 08:56:19;;;;;;;3.87;2.10;;;10.70;99.90;;;11.24;100.00;97929.19;4981424;28;20474;-75
2024/02/16 08:58:47;;;;;;;6.67;2.17;;;10.70;99.90;;;11.31;100.00;97935.28;4981839;28;20461;-75
2024/02/16 09:01:16;;;;;;;5.53;2.30;;;10.70;99.90;;;11.39;100.00;97942.13;4979679;28;20502;-75
2024/02/16 09:03:45;;;;;;;3.87;2.40;;;10.80;99.90;;;11.43;100.00;97941.56;4980008;28;20464;-75
2024/02/16 09:06:14;;;;;;;3.37;2.00;;;10.80;99.90;;;11.50;100.00;97945.03;4980732;28;20472;-75
2024/02/16 09:08:42;;;;;;;2.50;2.20;;;10.90;99.90;;;11.55;100.00;97947.06;4980852;28;20450;-75
2024/02/16 09:11:14;;;;;;;3.37;2.00;;;11.00;99.90;;;11.59;100.00;97937.81;4979708;28;20510;-75
2024/02/16 09:13:42;;;;;;;4.03;1.97;;;11.00;99.90;;;11.61;100.00;97949.69;4980478;28;20452;-75
2024/02/16 09:16:11;;;;;;;5.33;2.20;;;11.10;99.90;;;11.65;100.00;97949.31;4979586;28;21022;-75
2024/02/16 09:18:39;;;;;;;2.70;1.90;;;11.10;99.90;;;11.69;100.00;97953.16;4981044;28;20470;-75
2024/02/16 09:21:08;;;;;;;15.00;7.43;;;11.10;99.90;;;11.75;100.00;97960.25;4975601;28;20486;-80
2024/02/16 09:23:40;;;;;;;8.43;3.33;;;11.20;99.90;;;11.83;100.00;97960.09;4973681;28;20543;-75
2024/02/16 09:26:10;;;;;;;5.90;2.23;;;11.40;99.90;;;11.87;100.00;97966.56;4980932;28;20487;-76
2024/02/16 09:28:42;;;;;;;9.97;2.60;;;11.30;99.90;;;11.95;100.00;97964.53;4976931;28;20468;-75
2024/02/16 09:31:14;;;;;;;6.20;2.40;;;11.40;99.90;;;12.00;100.00;97962.16;4979296;28;20503;-75
2024/02/16 09:33:43;;;;;;;4.67;2.10;;;11.50;99.90;;;12.07;100.00;97972.66;4979363;28;20836;-75
2024/02/16 09:36:12;;;;;;;4.47;2.10;;;11.60;99.90;;;12.13;100.00;97973.66;4978722;28;20484;-75
2024/02/16 09:38:41;;;;;;;5.23;2.70;;;11.60;99.90;;;12.16;100.00;97981.94;4978983;28;20460;-75
2024/02/16 09:41:09;;;;;;;5.83;2.60;;;11.50;99.90;;;12.24;100.00;97973.91;4979069;28;21042;-75
2024/02/16 09:43:39;;;;;;;5.90;2.50;;;11.70;99.90;;;12.33;100.00;97977.94;4979587;28;20468;-75
2024/02/16 09:46:10;;;;;;;2.30;1.70;;;11.80;99.90;;;12.39;100.00;97986.84;4980535;28;20526;-75
2024/02/16 09:48:43;;;;;;;6.20;2.50;;;11.80;99.90;;;12.43;100.00;97995.91;4980199;28;20891;-75
2024/02/16 09:51:12;;;;;;;5.63;2.63;;;11.80;99.90;;;12.47;100.00;97990.06;4980044;28;20504;-75
2024/02/16 09:53:41;;;;;;;11.70;5.63;;;11.90;99.90;;;12.53;100.00;97989.25;4973096;28;20467;-76
2024/02/16 09:56:09;;;;;;;7.20;3.40;;;12.00;99.90;;;12.60;100.00;97999.75;4969038;28;21195;-75
2024/02/16 09:58:38;;;;;;;10.43;3.23;;;12.10;99.90;;;12.65;100.00;97992.09;4972798;28;20460;-75
2024/02/16 10:01:08;;;;;;;8.10;4.47;;;12.10;99.90;;;12.73;100.00;97988.47;4976529;28;20456;-75
2024/02/16 10:03:36;;;;;;;3.67;2.20;;;12.20;99.90;;;12.76;100.00;97998.56;4979271;28;21132;-75
2024/02/16 10:06:06;;;;;;;7.87;2.10;;;12.20;99.90;;;12.81;100.00;97998.75;4979352;28;20463;-75
2024/02/16 10:08:47;;;;;;;5.10;3.00;;;12.20;99.90;;;12.88;100.00;98007.44;4980558;28;20494;-75
2024/02/16 10:11:18;;;;;;;6.00;2.30;;;12.30;99.90;;;12.94;100.00;98007.44;4979051;28;20498;-75
2024/02/16 10:13:58;;;;;;;3.57;2.10;;;12.30;99.90;;;12.97;100.00;98006.22;4979407;28;20891;-75
2024/02/16 10:16:28;;;;;;;6.67;2.63;;;12.40;99.90;;;13.05;100.00;98014.69;4979985;28;20471;-75
2024/02/16 10:18:58;;;;;;;4.87;2.10;;;12.60;99.90;;;13.09;100.00;98020.38;4979189;28;20472;-75
2024/02/16 10:21:28;;;;;;;5.50;2.30;;;12.50;99.90;;;13.14;100.00;98017.16;4979205;28;20871;-75
2024/02/16 10:24:04;;;;;;;3.63;2.20;;;12.60;99.90;;;13.19;100.00;98026.00;4982286;28;20471;-75
2024/02/16 10:26:37;;;;;;;4.93;2.20;;;12.70;99.90;;;13.23;100.00;98021.16;4983557;28;20507;-75
2024/02/16 10:29:08;;;;;;;6.93;1.97;;;12.80;99.90;;;13.26;100.00;98032.06;4982800;28;20468;-75